createdAt,value
2022-10-08T00:46:10.944Z,101415.19
2022-10-08T00:48:39.257Z,101405.63
2022-10-08T00:51:06.768Z,101400.03
2022-10-08T00:53:35.284Z,101392.78
2022-10-08T00:56:03.200Z,101390.00
2022-10-08T00:58:30.666Z,101383.22
2022-10-08T01:48:01.122Z,101364.81
2022-10-08T01:50:31.159Z,101353.63
2022-10-08T01:52:59.180Z,101348.03
2022-10-08T01:55:27.411Z,101348.03
2022-10-08T01:57:55.266Z,101352.00
2022-10-08T02:46:01.292Z,101327.63
2022-10-08T02:48:29.425Z,101329.63
2022-10-08T02:50:57.196Z,101324.84
2022-10-08T02:53:25.079Z,101328.00
2022-10-08T02:55:54.726Z,101329.63
2022-10-08T02:58:22.544Z,101324.03
2022-10-08T03:47:39.289Z,101333.59
2022-10-08T03:50:07.203Z,101333.59
2022-10-08T03:52:34.707Z,101333.59
2022-10-08T03:55:02.218Z,101328.00
2022-10-08T03:57:30.015Z,101333.59
2022-10-08T03:59:57.521Z,101334.41
2022-10-08T04:32:00.283Z,101343.97
2022-10-08T04:34:29.155Z,101344.78
2022-10-08T04:36:56.887Z,101335.56
2022-10-08T04:39:24.420Z,101343.16
2022-10-08T04:41:51.903Z,101331.97
2022-10-08T04:44:19.376Z,101333.59
2022-10-08T04:46:46.985Z,101331.97
2022-10-08T04:49:15.914Z,101329.16
2022-10-08T04:51:43.363Z,101331.97
2022-10-08T04:54:10.869Z,101329.97
2022-10-08T04:56:38.353Z,101328.69
2022-10-08T04:59:05.835Z,101337.56
2022-10-08T05:01:33.400Z,101333.59
2022-10-08T05:04:01.023Z,101331.97
2022-10-08T05:06:30.571Z,101333.59
2022-10-08T05:08:58.578Z,101334.75
2022-10-08T05:11:26.235Z,101334.75
2022-10-08T05:13:54.185Z,101339.19
2022-10-08T05:16:21.911Z,101331.97
2022-10-08T05:18:50.749Z,101326.38
2022-10-08T05:21:19.929Z,101336.38
2022-10-08T05:23:49.131Z,101334.75
2022-10-08T05:26:17.893Z,101331.97
2022-10-08T05:28:47.064Z,101330.31
2022-10-08T05:31:15.070Z,101331.97
2022-10-08T05:33:44.279Z,101336.75
2022-10-08T05:36:14.037Z,101343.16
2022-10-08T05:38:43.720Z,101345.94
2022-10-08T05:41:13.467Z,101341.50
2022-10-08T05:43:41.034Z,101340.34
2022-10-08T05:46:08.589Z,101343.16
2022-10-08T05:48:36.212Z,101343.16
2022-10-08T05:51:07.045Z,101337.56
2022-10-08T05:53:35.612Z,101344.78
2022-10-08T05:56:03.325Z,101348.75
2022-10-08T05:58:32.295Z,101343.16
2022-10-08T06:01:00.310Z,101348.75
2022-10-08T06:03:27.779Z,101354.34
2022-10-08T06:05:55.659Z,101352.69
2022-10-08T06:08:23.240Z,101366.34
2022-10-08T06:10:51.149Z,101357.13
2022-10-08T06:13:19.187Z,101359.13
2022-10-08T06:15:58.649Z,101352.69
2022-10-08T06:18:27.380Z,101359.94
2022-10-08T06:20:54.852Z,101354.34
2022-10-08T06:23:22.761Z,101359.94
2022-10-08T06:25:50.230Z,101364.72
2022-10-08T06:28:18.118Z,101371.13
2022-10-08T06:30:46.476Z,101375.91
2022-10-08T06:33:16.856Z,101371.13
2022-10-08T06:35:44.349Z,101369.47
2022-10-08T06:38:12.164Z,101380.66
2022-10-08T06:40:41.073Z,101376.72
2022-10-08T06:43:08.674Z,101380.66
2022-10-08T06:45:39.016Z,101382.31
2022-10-08T06:48:06.599Z,101382.31
2022-10-08T06:50:35.542Z,101377.88
2022-10-08T06:53:03.053Z,101371.13
2022-10-08T06:55:30.549Z,101376.72
2022-10-08T06:57:58.046Z,101372.25
2022-10-08T07:00:25.636Z,101377.88
2022-10-08T07:02:53.243Z,101386.25
2022-10-08T07:05:20.733Z,101389.06
2022-10-08T07:07:49.986Z,101395.50
2022-10-08T07:10:18.621Z,101386.25
2022-10-08T07:12:47.370Z,101401.09
2022-10-08T07:15:15.091Z,101401.91
2022-10-08T07:17:42.645Z,101403.03
2022-10-08T07:20:10.378Z,101400.25
2022-10-08T07:22:37.915Z,101409.47
2022-10-08T07:25:07.052Z,101404.69
2022-10-08T07:27:34.598Z,101400.25
2022-10-08T07:30:02.238Z,101409.47
2022-10-08T07:32:29.916Z,101401.09
2022-10-08T07:35:00.033Z,101403.03
2022-10-08T07:37:27.720Z,101405.03
2022-10-08T07:39:55.273Z,101403.03
2022-10-08T07:42:24.208Z,101409.47
2022-10-08T07:44:51.863Z,101410.28
2022-10-08T07:47:20.032Z,101403.03
2022-10-08T07:49:47.575Z,101403.03
2022-10-08T07:52:15.304Z,101415.06
2022-10-08T07:54:45.499Z,101421.50
2022-10-08T07:57:13.024Z,101419.81
2022-10-08T07:59:42.173Z,101421.50
2022-10-08T08:02:09.733Z,101430.69
2022-10-08T08:04:37.557Z,101431.00
2022-10-08T08:07:05.071Z,101428.22
2022-10-08T08:09:32.695Z,101419.81
2022-10-08T08:12:00.488Z,101426.28
2022-10-08T08:14:28.915Z,101409.47
2022-10-08T08:16:57.795Z,101422.63
2022-10-08T08:19:27.574Z,101427.09
2022-10-08T08:21:55.760Z,101414.22
2022-10-08T08:24:24.333Z,101425.41
2022-10-08T08:26:55.541Z,101424.59
2022-10-08T08:29:25.425Z,101420.66
2022-10-08T08:31:53.362Z,101431.88
2022-10-08T08:34:23.425Z,101429.06
2022-10-08T08:36:51.847Z,101425.41
2022-10-08T08:39:20.650Z,101429.88
2022-10-08T08:42:05.401Z,101425.41
2022-10-08T08:44:34.212Z,101421.50
2022-10-08T08:47:04.107Z,101427.09
2022-10-08T08:49:35.777Z,101426.28
2022-10-08T08:52:04.467Z,101422.63
2022-10-08T08:54:33.023Z,101444.69
2022-10-08T08:57:04.345Z,101432.69
2022-10-08T08:59:33.772Z,101434.31
2022-10-08T09:02:03.053Z,101434.31
2022-10-08T09:04:35.824Z,101446.66
2022-10-08T09:07:05.447Z,101439.09
2022-10-08T09:09:35.092Z,101461.47
2022-10-08T09:12:03.440Z,101466.25
2022-10-08T09:14:36.062Z,101460.66
2022-10-08T09:17:06.386Z,101467.88
2022-10-08T09:19:37.171Z,101456.69
2022-10-08T09:22:05.110Z,101453.75
2022-10-08T09:24:33.442Z,101461.47
2022-10-08T09:27:02.124Z,101451.09
2022-10-08T09:29:36.083Z,101457.38
2022-10-08T09:32:04.429Z,101462.28
2022-10-08T09:34:32.260Z,101467.88
2022-10-08T09:37:05.398Z,101471.84
2022-10-08T09:39:33.613Z,101479.06
2022-10-08T09:42:14.517Z,101473.47
2022-10-08T09:44:42.959Z,101471.84
2022-10-08T09:47:12.359Z,101479.06
2022-10-08T09:49:40.204Z,101491.88
2022-10-08T09:52:16.868Z,101481.88
2022-10-08T09:54:49.133Z,101495.84
2022-10-08T09:57:17.797Z,101490.25
2022-10-08T09:59:50.703Z,101483.03
2022-10-08T10:02:31.240Z,101484.66
2022-10-08T10:04:59.442Z,101493.06
2022-10-08T10:07:37.961Z,101501.44
2022-10-08T10:10:06.421Z,101508.69
2022-10-08T10:12:35.323Z,101491.06
2022-10-08T10:15:04.135Z,101493.06
2022-10-08T10:17:35.348Z,101503.09
2022-10-08T10:20:05.092Z,101507.03
2022-10-08T10:22:34.391Z,101511.47
2022-10-08T10:25:05.466Z,101509.03
2022-10-08T10:27:34.395Z,101508.69
2022-10-08T10:30:05.597Z,101498.66
2022-10-08T10:32:35.979Z,101507.03
2022-10-08T10:35:05.845Z,101512.63
2022-10-08T10:37:35.738Z,101512.63
2022-10-08T10:40:11.733Z,101520.22
2022-10-08T10:42:42.694Z,101511.81
2022-10-08T10:45:16.440Z,101523.84
2022-10-08T10:47:44.388Z,101511.81
2022-10-08T10:50:13.672Z,101522.66
2022-10-08T10:52:46.248Z,101513.47
2022-10-08T10:55:20.637Z,101507.03
2022-10-08T10:57:56.885Z,101512.63
2022-10-08T11:00:24.976Z,101519.88
2022-10-08T11:02:53.327Z,101515.44
2022-10-08T11:05:21.981Z,101519.06
2022-10-08T11:07:53.665Z,101519.88
2022-10-08T11:10:28.486Z,101531.06
2022-10-08T11:12:58.236Z,101523.84
2022-10-08T11:15:29.194Z,101521.50
2022-10-08T11:18:04.000Z,101531.06
2022-10-08T11:20:40.890Z,101520.69
2022-10-08T11:23:12.433Z,101527.09
2022-10-08T11:26:10.839Z,101521.50
2022-10-08T11:28:33.975Z,101525.47
2022-10-08T11:31:05.079Z,101531.06
2022-10-08T11:33:33.064Z,101541.09
2022-10-08T11:36:07.032Z,101536.66
2022-10-08T11:38:36.563Z,101538.28
2022-10-08T11:41:07.159Z,101542.25
2022-10-08T11:43:36.326Z,101536.66
2022-10-08T11:46:22.478Z,101537.47
2022-10-08T11:48:50.982Z,101520.69
2022-10-08T11:51:32.147Z,101522.66
2022-10-08T11:54:01.808Z,101524.28
2022-10-08T11:56:31.067Z,101531.88
2022-10-08T11:58:59.035Z,101524.28
2022-10-08T12:01:26.874Z,101524.78
2022-10-08T12:04:01.318Z,101515.22
2022-10-08T12:06:29.652Z,101516.03
2022-10-08T12:08:57.735Z,101520.47
2022-10-08T12:11:48.401Z,101504.03
2022-10-08T12:14:32.558Z,101514.06
2022-10-08T12:17:09.747Z,101518.84
2022-10-08T12:19:58.709Z,101516.84
2022-10-08T12:22:42.413Z,101516.84
2022-10-08T12:25:25.128Z,101520.00
2022-10-08T12:27:54.645Z,101516.84
2022-10-08T12:30:22.849Z,101528.03
2022-10-08T12:32:55.149Z,101516.84
2022-10-08T12:35:23.943Z,101520.81
2022-10-08T12:37:57.664Z,101516.84
2022-10-08T12:40:27.474Z,101528.03
2022-10-08T12:42:59.495Z,101527.22
2022-10-08T12:45:27.793Z,101530.03
2022-10-08T12:47:57.578Z,101527.22
2022-10-08T12:50:31.435Z,101520.81
2022-10-08T12:53:00.812Z,101519.66
2022-10-08T12:55:28.663Z,101529.69
2022-10-08T12:57:57.940Z,101533.66
2022-10-08T13:00:26.870Z,101531.19
2022-10-08T13:03:01.666Z,101533.19
2022-10-08T13:05:32.763Z,101540.75
2022-10-08T13:08:00.600Z,101541.56
2022-10-08T13:10:28.919Z,101551.94
2022-10-08T13:13:01.683Z,101544.38
2022-10-08T13:15:30.750Z,101541.56
2022-10-08T13:17:58.701Z,101545.50
2022-10-08T13:20:26.903Z,101541.56
2022-10-08T13:22:54.859Z,101542.72
2022-10-08T13:25:32.786Z,101547.16
2022-10-08T13:28:12.107Z,101547.16
2022-10-08T13:30:40.366Z,101541.56
2022-10-08T13:33:12.758Z,101541.56
2022-10-08T13:35:40.857Z,101543.22
2022-10-08T13:38:08.946Z,101548.00
2022-10-08T13:40:37.501Z,101544.38
2022-10-08T13:43:06.711Z,101537.59
2022-10-08T13:45:37.744Z,101543.22
2022-10-08T13:48:10.274Z,101542.38
2022-10-08T13:50:38.476Z,101538.78
2022-10-08T13:53:09.827Z,101536.78
2022-10-08T13:55:39.461Z,101543.22
2022-10-08T13:58:08.488Z,101542.38
2022-10-08T14:00:39.913Z,101541.56
2022-10-08T14:03:11.067Z,101537.59
2022-10-08T14:05:42.101Z,101543.22
2022-10-08T14:08:13.802Z,101543.22
2022-10-08T14:10:41.990Z,101554.41
2022-10-08T14:13:10.678Z,101543.22
2022-10-08T14:15:40.684Z,101544.84
2022-10-08T14:18:09.722Z,101548.81
2022-10-08T14:20:38.764Z,101543.22
2022-10-08T14:23:06.976Z,101544.84
2022-10-08T14:25:34.936Z,101545.66
2022-10-08T14:28:02.820Z,101544.84
2022-10-08T14:30:32.193Z,101549.63
2022-10-08T14:33:01.588Z,101548.00
2022-10-08T14:35:29.558Z,101550.44
2022-10-08T14:37:57.643Z,101558.00
2022-10-08T14:40:25.728Z,101570.03
2022-10-08T14:42:55.132Z,101572.00
2022-10-08T14:45:23.513Z,101565.59
2022-10-08T14:47:52.269Z,101561.16
2022-10-08T14:50:21.800Z,101564.78
2022-10-08T14:52:50.035Z,101560.00
2022-10-08T14:55:18.323Z,101563.59
2022-10-08T14:57:46.514Z,101567.22
2022-10-08T15:00:14.971Z,101574.81
2022-10-08T15:02:42.841Z,101578.41
2022-10-08T15:05:10.882Z,101578.41
2022-10-08T15:07:40.683Z,101586.00
2022-10-08T15:10:09.937Z,101589.59
2022-10-08T15:12:38.628Z,101586.81
2022-10-08T15:15:07.557Z,101589.59
2022-10-08T15:17:35.636Z,101612.00
2022-10-08T15:20:03.723Z,101628.78
2022-10-08T15:22:31.931Z,101642.78
2022-10-08T15:25:01.570Z,101664.00
2022-10-08T15:27:29.782Z,101667.13
2022-10-08T15:29:58.362Z,101667.94
2022-10-08T15:32:30.341Z,101667.94
2022-10-08T15:34:59.190Z,101662.34
2022-10-08T15:37:27.381Z,101662.34
2022-10-08T15:39:55.729Z,101670.75
2022-10-08T15:42:25.843Z,101673.56
2022-10-08T15:44:55.598Z,101671.91
2022-10-08T15:47:24.651Z,101673.56
2022-10-08T15:49:54.069Z,101666.31
2022-10-08T15:52:22.745Z,101677.50
2022-10-08T15:54:50.587Z,101673.56
2022-10-08T15:57:18.782Z,101674.72
2022-10-08T15:59:48.191Z,101675.19
2022-10-08T16:02:17.926Z,101683.94
2022-10-08T16:04:46.635Z,101689.53
2022-10-08T16:07:14.725Z,101683.13
2022-10-08T16:09:42.682Z,101690.34
2022-10-08T16:12:10.549Z,101684.75
2022-10-08T16:14:38.739Z,101687.53
2022-10-08T16:17:08.348Z,101690.34
2022-10-08T16:19:36.705Z,101693.13
2022-10-08T16:22:05.514Z,101695.94
2022-10-08T16:24:33.477Z,101707.13
2022-10-08T16:27:01.429Z,101701.53
2022-10-08T16:29:29.517Z,101712.72
2022-10-08T16:31:57.484Z,101712.72
2022-10-08T16:34:27.379Z,101711.09
2022-10-08T16:36:56.051Z,101715.53
2022-10-08T16:39:25.214Z,101719.13
2022-10-08T16:41:53.057Z,101718.31
2022-10-08T16:44:21.501Z,101723.91
2022-10-08T16:46:50.854Z,101735.13
2022-10-08T16:49:24.252Z,101735.13
2022-10-08T16:51:55.121Z,101739.88
2022-10-08T16:54:23.691Z,101740.72
2022-10-08T16:56:51.888Z,101751.91
2022-10-08T16:59:21.295Z,101756.34
2022-10-08T17:01:50.299Z,101763.91
2022-10-08T17:04:18.797Z,101779.88
2022-10-08T17:06:46.865Z,101768.88
2022-10-08T17:09:16.282Z,101791.91
2022-10-08T17:11:44.117Z,101786.28
2022-10-08T17:14:12.920Z,101791.91
2022-10-08T17:16:40.792Z,101791.06
2022-10-08T17:19:08.998Z,101792.25
2022-10-08T17:21:38.635Z,101800.63
2022-10-08T17:24:07.417Z,101793.88
2022-10-08T17:26:36.825Z,101809.50
2022-10-08T17:29:05.032Z,101807.88
2022-10-08T17:31:33.008Z,101821.84
2022-10-08T17:34:01.077Z,101819.06
2022-10-08T17:36:29.394Z,101821.84
2022-10-08T17:38:57.725Z,101827.47
2022-10-08T17:41:26.180Z,101822.69
2022-10-08T17:43:56.652Z,101835.84
2022-10-08T17:46:25.280Z,101841.44
2022-10-08T17:48:53.476Z,101834.69
2022-10-08T17:51:21.747Z,101847.84
2022-10-08T17:53:52.353Z,101838.66
2022-10-08T17:56:20.321Z,101848.69
2022-10-08T17:58:48.155Z,101847.03
2022-10-08T18:01:17.990Z,101855.44
2022-10-08T18:03:46.139Z,101864.66
2022-10-08T18:06:14.568Z,101863.84
2022-10-08T18:08:42.541Z,101863.84
2022-10-08T18:11:10.864Z,101877.81
2022-10-08T18:13:38.828Z,101886.22
2022-10-08T18:16:06.954Z,101886.22
2022-10-08T18:18:36.327Z,101891.81
2022-10-08T18:21:04.873Z,101891.81
2022-10-08T18:23:33.321Z,101897.41
2022-10-08T18:26:07.770Z,101903.00
2022-10-08T18:28:35.879Z,101903.00
2022-10-08T18:31:04.797Z,101903.00
2022-10-08T18:33:32.742Z,101907.44
2022-10-08T18:36:09.100Z,101905.81
2022-10-08T18:38:36.949Z,101910.25
2022-10-08T18:41:11.880Z,101908.59
2022-10-08T18:43:40.491Z,101918.63
2022-10-08T18:46:08.848Z,101920.63
2022-10-08T18:48:37.207Z,101915.38
2022-10-08T18:51:06.388Z,101923.75
2022-10-08T18:53:36.752Z,101924.41
2022-10-08T18:56:05.344Z,101939.38
2022-10-08T18:58:33.392Z,101943.00
2022-10-08T19:01:01.228Z,101943.00
2022-10-08T19:03:29.810Z,101946.16
2022-10-08T19:05:58.269Z,101942.19
2022-10-08T19:08:26.202Z,101943.81
2022-10-08T19:10:55.748Z,101956.19
2022-10-08T19:13:23.570Z,101953.38
2022-10-08T19:15:51.570Z,101950.59
2022-10-08T19:18:19.506Z,101954.19
2022-10-08T19:20:47.468Z,101959.78
2022-10-08T19:23:15.561Z,101959.78
2022-10-08T19:25:44.006Z,101965.41
2022-10-08T19:28:14.517Z,101977.06
2022-10-08T19:30:42.733Z,101975.78
2022-10-08T19:33:10.766Z,101975.78
2022-10-08T19:35:38.854Z,101988.59
2022-10-08T19:38:06.698Z,101983.00
2022-10-08T19:40:35.269Z,101981.38
2022-10-08T19:43:04.316Z,101987.78
2022-10-08T19:45:33.598Z,101986.97
2022-10-08T19:48:01.672Z,101998.97
2022-10-08T19:50:30.895Z,102000.94
2022-10-08T19:53:01.203Z,101993.38
2022-10-08T19:55:29.892Z,101997.00
2022-10-08T19:57:58.809Z,101998.16
2022-10-08T20:00:28.724Z,101998.16
2022-10-08T20:02:59.818Z,102011.00
2022-10-08T20:05:29.552Z,102008.19
2022-10-08T20:07:59.908Z,102011.00
2022-10-08T20:10:29.219Z,102017.41
2022-10-08T20:12:58.867Z,102020.53
2022-10-08T20:15:31.604Z,102033.38
2022-10-08T20:18:02.925Z,102026.97
2022-10-08T20:20:33.553Z,102036.19
2022-10-08T20:23:03.098Z,102033.38
2022-10-08T20:25:32.712Z,102033.38
2022-10-08T20:28:05.776Z,102044.56
2022-10-08T20:30:35.398Z,102038.97
2022-10-08T20:33:06.320Z,102049.34
2022-10-08T20:35:37.170Z,102040.94
2022-10-08T20:38:11.497Z,102048.53
2022-10-08T20:40:42.576Z,102052.16
2022-10-08T20:43:11.756Z,102061.34
2022-10-08T20:45:41.029Z,102066.97
2022-10-08T20:48:11.631Z,102059.72
2022-10-08T20:50:41.063Z,102066.97
2022-10-08T20:53:10.684Z,102061.34
2022-10-08T20:55:40.338Z,102078.16
2022-10-08T20:58:09.266Z,102072.56
2022-10-08T21:00:37.228Z,102078.16
2022-10-08T21:03:05.168Z,102083.75
2022-10-08T21:05:40.092Z,102080.31
2022-10-08T21:08:08.297Z,102089.34
2022-10-08T21:10:36.506Z,102090.16
2022-10-08T21:13:04.465Z,102089.34
2022-10-08T21:15:32.432Z,102087.72
2022-10-08T21:18:00.877Z,102094.94
2022-10-08T21:20:28.969Z,102097.75
2022-10-08T21:22:58.608Z,102098.91
2022-10-08T21:25:26.573Z,102103.34
2022-10-08T21:27:54.414Z,102102.53
2022-10-08T21:30:22.373Z,102111.75
2022-10-08T21:32:51.263Z,102106.13
2022-10-08T21:35:19.145Z,102110.91
2022-10-08T21:37:46.993Z,102115.69
2022-10-08T21:40:16.273Z,102112.91
2022-10-08T21:42:44.245Z,102116.50
2022-10-08T21:45:12.079Z,102115.69
2022-10-08T21:47:39.970Z,102115.69
2022-10-08T21:50:08.497Z,102112.91
2022-10-08T21:52:36.457Z,102121.28
2022-10-08T21:55:05.980Z,102117.34
2022-10-08T21:57:35.140Z,102120.47
2022-10-08T22:00:03.227Z,102127.72
2022-10-08T22:02:41.039Z,102115.69
2022-10-08T22:05:09.366Z,102120.47
2022-10-08T22:07:37.212Z,102121.28
2022-10-08T22:10:05.176Z,102133.31
2022-10-08T22:12:33.015Z,102142.84
2022-10-08T22:15:02.176Z,102146.47
2022-10-08T22:17:30.375Z,102150.09
2022-10-08T22:19:58.823Z,102148.47
2022-10-08T22:22:26.916Z,102154.88
2022-10-08T22:24:55.634Z,102149.28
2022-10-08T22:27:25.288Z,102149.28
2022-10-08T22:29:54.167Z,102143.69
2022-10-08T22:32:27.324Z,102149.28
2022-10-08T22:34:55.999Z,102154.06
2022-10-08T22:37:24.695Z,102147.63
2022-10-08T22:39:53.584Z,102157.69
2022-10-08T22:42:22.294Z,102164.91
2022-10-08T22:44:51.464Z,102160.47
2022-10-08T22:47:20.736Z,102164.44
2022-10-08T22:49:50.243Z,102166.06
2022-10-08T22:52:18.841Z,102166.06
2022-10-08T22:54:48.329Z,102160.47
2022-10-08T22:57:17.374Z,102171.66
2022-10-08T22:59:46.419Z,102165.25
2022-10-08T23:46:30.666Z,102188.78
2022-10-08T23:48:58.622Z,102185.19
2022-10-08T23:51:28.266Z,102186.81
2022-10-08T23:53:56.120Z,102186.63
2022-10-08T23:56:24.226Z,102186.00
2022-10-08T23:58:52.166Z,102189.63
